Time;durP1;ratioP1;P1;durP2;ratioP2;P2;SDS_P1;SDS_P2;PMS_P1;PMS_P2;Temp;Humidity;BMP_temperature;BMP_pressure;BME280_temperature;BME280_humidity;BME280_pressure;Samples;Min_cycle;Max_cycle;Signal;HPM_P1;HPM_P2
2021/07/03 09:55:29;;;;;;;8.55;7.50;;;;;;;29.28;44.44;100133.02;2016969;83;27282;31
2021/07/03 09:58:32;;;;;;;7.67;6.97;;;;;;;29.60;44.35;100152.74;2019492;87;31185;-60
2021/07/03 10:01:38;;;;;;;10.32;7.08;;;;;;;29.76;43.99;100147.38;2005589;87;57218;-60
2021/07/03 10:04:38;;;;;;;9.00;7.15;;;;;;;29.70;43.09;100151.81;2020139;87;29839;-66
2021/07/03 10:07:45;;;;;;;8.63;7.72;;;;;;;29.49;42.78;100145.89;2041197;87;27521;-65
2021/07/03 10:10:55;;;;;;;8.80;7.45;;;;;;;29.37;43.51;100149.20;2041004;87;28634;-61
2021/07/03 10:14:03;;;;;;;8.70;7.28;;;;;;;29.43;43.56;100146.70;2037429;87;31094;-60
2021/07/03 10:17:06;;;;;;;10.43;7.12;;;;;;;29.19;42.69;100144.20;2012497;87;33008;-71
2021/07/03 10:20:15;;;;;;;11.63;8.23;;;;;;;28.98;43.20;100144.27;2048173;86;30271;-64
2021/07/03 10:23:17;;;;;;;9.45;8.15;;;;;;;28.82;43.20;100144.06;2047918;85;27598;-64
2021/07/03 10:26:19;;;;;;;9.78;7.33;;;;;;;28.68;43.07;100146.69;2061284;85;29423;-69
2021/07/03 10:29:23;;;;;;;9.35;7.72;;;;;;;28.49;43.01;100144.06;2021239;86;31018;-66
2021/07/03 10:32:36;;;;;;;11.75;7.42;;;;;;;28.35;43.23;100144.48;2017447;86;34232;-61
2021/07/03 10:35:48;;;;;;;10.65;6.30;;;;;;;28.26;43.18;100137.39;2017745;87;29716;-67
2021/07/03 10:38:49;;;;;;;11.35;6.65;;;;;;;28.26;43.23;100138.25;2020039;85;27655;-68
2021/07/03 10:41:52;;;;;;;7.17;6.25;;;;;;;28.20;42.41;100129.39;1972300;89;28743;-73
2021/07/03 10:44:53;;;;;;;9.95;6.85;;;;;;;28.06;42.28;100133.86;2005647;88;31068;-72
2021/07/03 10:47:55;;;;;;;12.55;6.45;;;;;;;27.94;42.90;100128.55;2005740;88;32961;-69
2021/07/03 10:51:10;;;;;;;7.45;6.25;;;;;;;27.87;43.08;100111.95;2005907;88;29661;-69
2021/07/03 10:54:20;;;;;;;9.93;6.08;;;;;;;27.78;43.15;100111.77;2005756;88;27865;-67
2021/07/03 10:57:26;;;;;;;6.80;6.10;;;;;;;27.59;42.91;100117.67;2005748;88;28189;-61
2021/07/03 11:00:28;;;;;;;10.35;6.40;;;;;;;27.49;43.20;100114.88;2005903;88;31906;-69
2021/07/03 11:03:35;;;;;;;9.58;6.72;;;;;;;27.43;43.20;100115.10;2005889;88;33858;-65
2021/07/03 11:06:51;;;;;;;8.03;5.83;;;;;;;27.40;43.25;100107.22;2005317;88;29735;-61
2021/07/03 11:09:56;;;;;;;8.98;6.28;;;;;;;27.41;43.63;100104.81;1983614;87;27618;-60
2021/07/03 11:12:59;;;;;;;11.73;6.15;;;;;;;27.40;43.02;100106.72;2039074;87;28716;-64
2021/07/03 11:16:03;;;;;;;7.00;6.10;;;;;;;27.43;43.25;100106.84;2040257;87;31142;-61
2021/07/03 11:19:05;;;;;;;9.13;6.12;;;;;;;27.42;42.97;100108.76;2040819;87;32991;-61
2021/07/03 11:22:09;;;;;;;8.63;6.05;;;;;;;27.46;43.13;100098.25;2040669;87;29696;-61
2021/07/03 11:25:12;;;;;;;9.90;6.35;;;;;;;27.51;43.40;100097.66;2041466;86;27496;-59
2021/07/03 11:28:18;;;;;;;6.92;5.97;;;;;;;27.53;43.51;100101.95;2041798;87;28794;-61
2021/07/03 11:31:21;;;;;;;15.28;6.15;;;;;;;27.53;43.30;100097.82;2041567;87;31096;-61
2021/07/03 11:34:23;;;;;;;7.87;5.40;;;;;;;27.58;43.52;100095.32;2041741;87;33084;-61
2021/07/03 11:37:34;;;;;;;7.55;5.60;;;;;;;27.74;43.84;100085.13;2041786;87;29732;-62
2021/07/03 11:40:36;;;;;;;8.98;6.62;;;;;;;27.89;43.79;100085.92;2041583;87;27464;-64
2021/07/03 11:43:39;;;;;;;7.33;6.30;;;;;;;28.01;43.45;100089.55;2041778;87;28737;-61
2021/07/03 11:46:46;;;;;;;8.08;6.42;;;;;;;28.01;43.37;100087.64;2041748;87;31079;-64
2021/07/03 11:49:48;;;;;;;7.00;6.00;;;;;;;28.05;42.92;100085.34;2041408;87;33067;-67
2021/07/03 11:52:54;;;;;;;6.03;5.42;;;;;;;27.96;43.12;100091.53;2041674;87;29551;-61
2021/07/03 11:56:01;;;;;;;9.25;6.30;;;;;;;27.95;42.56;100082.07;2041881;87;27448;-63
2021/07/03 11:59:04;;;;;;;7.50;6.08;;;;;;;27.90;42.88;100075.23;2014267;87;28746;-67
2021/07/03 12:02:08;;;;;;;6.47;5.87;;;;;;;27.97;42.34;100068.96;1998447;88;31166;-63
2021/07/03 12:05:13;;;;;;;7.47;5.50;;;;;;;28.02;42.56;100059.06;2013240;88;33010;-66
2021/07/03 12:08:16;;;;;;;5.92;5.20;;;;;;;28.03;42.16;100058.01;2013512;88;29695;-68
2021/07/03 12:11:22;;;;;;;9.90;5.75;;;;;;;28.06;41.64;100059.50;2013564;88;27509;-65
2021/07/03 12:14:27;;;;;;;6.97;5.72;;;;;;;28.13;42.05;100061.00;2013553;88;28731;-65
2021/07/03 12:17:29;;;;;;;8.03;5.58;;;;;;;28.22;41.90;100052.92;2013473;88;31045;-61
2021/07/03 12:20:33;;;;;;;8.28;5.37;;;;;;;28.30;41.96;100054.67;2013478;88;33082;-63
2021/07/03 12:23:50;;;;;;;8.43;5.70;;;;;;;28.38;40.81;100058.65;2013499;88;29689;-63
2021/07/03 12:26:54;;;;;;;9.03;5.90;;;;;;;28.41;41.41;100051.91;1998174;88;27535;-65
2021/07/03 12:30:05;;;;;;;7.35;5.22;;;;;;;28.39;41.04;100046.58;2013578;88;28716;-62
2021/07/03 12:33:12;;;;;;;9.88;5.62;;;;;;;28.39;40.68;100041.61;2013389;88;31100;-61
2021/07/03 12:36:22;;;;;;;9.35;4.95;;;;;;;28.34;40.78;100043.59;2013050;88;33120;-60
2021/07/03 12:39:25;;;;;;;7.15;5.35;;;;;;;28.31;40.26;100046.20;2013340;88;29713;-63
2021/07/03 12:42:29;;;;;;;6.03;4.83;;;;;;;28.23;40.17;100049.63;2013585;88;27516;-62
2021/07/03 12:45:33;;;;;;;6.35;5.40;;;;;;;28.09;39.89;100052.23;1997987;88;28691;-61
2021/07/03 12:48:39;;;;;;;6.55;5.95;;;;;;;27.90;39.84;100055.13;2013469;88;31098;-61
2021/07/03 12:51:43;;;;;;;7.70;5.95;;;;;;;27.58;39.82;100058.17;2013420;88;33093;-60
2021/07/03 12:54:46;;;;;;;9.00;6.15;;;;;;;27.24;40.31;100056.05;2013499;88;29700;-62
2021/07/03 12:57:48;;;;;;;8.53;6.72;;;;;;;26.84;40.70;100060.47;2023382;87;27491;-60
2021/07/03 13:00:52;;;;;;;8.63;6.20;;;;;;;26.51;41.30;100056.12;2016156;88;28818;-61
2021/07/03 13:03:55;;;;;;;9.75;6.08;;;;;;;26.22;41.61;100051.45;2030753;87;30962;-60
2021/07/03 13:06:57;;;;;;;6.67;5.97;;;;;;;25.92;42.08;100048.05;2030615;87;33106;-60
2021/07/03 13:10:00;;;;;;;8.43;7.10;;;;;;;25.70;42.75;100050.25;2030633;87;29717;-68
2021/07/03 13:13:03;;;;;;;10.48;6.80;;;;;;;25.49;43.14;100049.00;2030737;87;27465;-70
2021/07/03 13:16:05;;;;;;;9.35;6.45;;;;;;;25.35;43.59;100043.75;2030656;87;28638;-70
2021/07/03 13:19:07;;;;;;;7.78;6.97;;;;;;;25.22;43.93;100044.84;2030636;87;31135;-72
2021/07/03 13:22:09;;;;;;;7.92;7.12;;;;;;;25.18;44.24;100045.70;2030612;87;33033;-71
2021/07/03 13:25:12;;;;;;;8.10;6.42;;;;;;;25.27;44.52;100047.39;2030645;87;29742;-62
2021/07/03 13:28:15;;;;;;;8.53;6.78;;;;;;;25.29;44.53;100039.84;2030751;87;27441;-65
2021/07/03 13:31:18;;;;;;;9.18;6.45;;;;;;;25.41;44.50;100045.75;2030626;87;28803;-74
2021/07/03 13:34:20;;;;;;;8.30;6.78;;;;;;;25.50;44.65;100043.01;2006582;87;31021;-71
2021/07/03 13:37:23;;;;;;;9.28;5.70;;;;;;;25.71;44.71;100042.36;2030423;87;32919;-72
2021/07/03 13:40:27;;;;;;;7.97;6.10;;;;;;;25.87;44.47;100034.54;2030527;87;29712;-70
2021/07/03 13:43:31;;;;;;;14.75;10.68;;;;;;;26.06;44.05;100025.78;2030864;87;27429;-69
2021/07/03 13:46:34;;;;;;;9.20;5.83;;;;;;;26.30;44.19;100019.78;2030364;87;28735;-71
